Friday, April 20, 2018, 10:16 AM GMT
Back to Local

CWAF, Ile Rouge Meteorological Aeronautical Presentation System

Location: , , Canada Lat: 48.083
Local Time: 10:16 AM GMT (10:16 GMT) Lon: -69.55
Time Zone: GMT Elev: 16 ft

Show me the last for .
Show Coded

Time T Td Feel RH Dir Speed Gust Alt SLP Vis Weather Sky Remarks
2018-04-20 10:00 34 31 25 89 360° 12 - - - 0 1-hr Precip Total: 0.01"
2018-04-20 09:00 34 33 25 95 360° 14 - - - 0 None
2018-04-20 08:00 34 31 25 89 360° 13 - - - 0 None
2018-04-20 07:00 35 31 26 85 350° 13 - - - 0 None
2018-04-20 06:00 34 31 25 89 350° 13 - - - 0 None
2018-04-20 05:00 34 32 24 91 350° 14 - - - 0 None
2018-04-20 04:00 34 32 25 93 10° 13 - - - 0 Peak wind: 19 mph (17 kts) from 20° at 09 min
2018-04-20 03:00 34 32 24 91 20° 15 - - - 0 Peak wind: 20 mph (18 kts) from 30° at 29 min
2018-04-20 02:00 33 32 23 94 20° 16 - - - 0 Peak wind: 25 mph (22 kts) from 10° at 15 min
2018-04-20 01:00 33 32 22 93 10° 20 - - - 0 Peak wind: 23 mph (20 kts) from 20° at 48 min
2018-04-20 00:00 33 32 22 95 20° 17 - - - 0 Peak wind: 21 mph (19 kts) from 30° at 21 min
2018-04-19 23:00 33 32 22 95 30° 17 - - - 0 Peak wind: 20 mph (18 kts) from 30° at 22 min
2018-04-19 22:00 33 32 22 95 30° 16 - - - 0 Peak wind: 19 mph (17 kts) from 20° at 58 min
2018-04-19 21:00 33 32 24 93 40° 13 - - - 0 None
2018-04-19 20:00 34 31 25 88 40° 13 - - - 0 None
2018-04-19 19:00 37 31 33 80 350° 5 - - - 0 None
2018-04-19 18:00 37 31 30 80 200° 10 - - - 0 None
2018-04-19 17:00 37 31 29 81 210° 12 - - - 0 None
2018-04-19 16:00 37 33 29 86 220° 13 - - - 0 1-hr Precip Total: 0.01"
2018-04-19 15:00 36 33 28 89 200° 10 - - - 0 None
2018-04-19 14:00 36 33 30 89 190° 8 - - - 0 None
2018-04-19 13:00 35 32 29 86 200° 7 - - - 0 None
2018-04-19 12:00 35 31 28 87 200° 8 - - - 0 None
2018-04-19 11:00 33 32 29 93 200° 5 - - - 0 None

Support USWX by starting your Amazon purchase here.